createdAt,value
2023-01-05T00:01:07.538Z,16.77
2023-01-05T00:03:35.664Z,14.98
2023-01-05T00:06:04.051Z,19.70
2023-01-05T00:08:36.549Z,18.27
2023-01-05T00:11:28.756Z,15.20
2023-01-05T00:14:13.996Z,15.30
2023-01-05T00:16:59.176Z,21.00
2023-01-05T00:19:44.676Z,14.15
2023-01-05T00:22:32.349Z,23.73
2023-01-05T00:25:07.384Z,18.75
2023-01-05T00:27:38.429Z,15.05
2023-01-05T00:30:06.096Z,12.50
2023-01-05T00:32:32.827Z,19.80
2023-01-05T00:34:59.769Z,18.15
2023-01-05T00:37:30.429Z,24.33
2023-01-05T00:39:57.201Z,19.67
2023-01-05T00:42:24.131Z,17.08
2023-01-05T00:44:50.830Z,17.85
2023-01-05T00:47:17.540Z,17.10
2023-01-05T00:49:44.183Z,17.55
2023-01-05T00:52:10.828Z,14.25
2023-01-05T00:54:37.525Z,13.82
2023-01-05T00:57:06.035Z,21.73
2023-01-05T00:59:32.924Z,21.33
2023-01-05T01:01:59.784Z,19.00
2023-01-05T01:04:26.529Z,13.75
2023-01-05T01:06:54.550Z,20.52
2023-01-05T01:09:21.499Z,14.93
2023-01-05T01:11:48.279Z,18.83
2023-01-05T01:14:15.118Z,13.73
2023-01-05T01:16:42.706Z,16.85
2023-01-05T01:19:17.828Z,16.90
2023-01-05T01:21:45.297Z,15.43
2023-01-05T01:24:23.648Z,20.60
2023-01-05T01:26:54.705Z,21.35
2023-01-05T01:29:23.047Z,19.93
2023-01-05T01:31:51.829Z,15.18
2023-01-05T01:34:18.854Z,21.13
2023-01-05T01:36:46.197Z,27.35
2023-01-05T01:39:13.389Z,13.80
2023-01-05T01:41:40.065Z,19.90
2023-01-05T01:44:59.250Z,14.73
2023-01-05T01:47:33.380Z,24.67
2023-01-05T01:50:08.261Z,20.25
2023-01-05T01:52:35.819Z,20.45
2023-01-05T01:55:05.333Z,17.75
2023-01-05T01:57:32.805Z,11.98
2023-01-05T02:00:01.716Z,23.75
2023-01-05T02:02:29.479Z,20.63
2023-01-05T02:05:02.961Z,19.33
2023-01-05T02:07:33.833Z,21.38
2023-01-05T02:10:02.648Z,22.63
2023-01-05T02:12:38.207Z,16.58
2023-01-05T02:15:42.469Z,13.23
2023-01-05T02:18:09.150Z,22.63
2023-01-05T02:21:02.056Z,20.10
2023-01-05T02:24:17.787Z,14.90
2023-01-05T02:27:05.321Z,20.30
2023-01-05T02:29:47.072Z,23.20
2023-01-05T02:32:32.054Z,18.92
2023-01-05T02:35:20.220Z,20.50
2023-01-05T02:38:01.713Z,18.48
2023-01-05T02:40:34.276Z,21.38
2023-01-05T02:43:05.164Z,26.25
2023-01-05T02:45:31.891Z,20.40
2023-01-05T02:47:58.602Z,22.65
2023-01-05T02:50:31.030Z,23.83
2023-01-05T02:53:03.752Z,23.02
2023-01-05T02:55:38.502Z,23.83
2023-01-05T02:58:12.988Z,27.88
2023-01-05T03:00:47.452Z,18.25
2023-01-05T03:03:29.424Z,28.17
2023-01-05T03:06:06.418Z,18.27
2023-01-05T03:08:38.967Z,15.45
2023-01-05T03:11:28.892Z,14.75
2023-01-05T03:14:22.068Z,16.80
2023-01-05T03:16:50.938Z,26.60
2023-01-05T03:19:38.778Z,22.05
2023-01-05T03:22:51.503Z,27.13
2023-01-05T03:25:40.372Z,16.50
2023-01-05T03:28:31.367Z,20.90
2023-01-05T03:31:29.026Z,26.63
2023-01-05T03:34:25.791Z,16.30
2023-01-05T03:37:06.757Z,20.27
2023-01-05T03:39:36.514Z,19.67
2023-01-05T03:42:03.237Z,27.23
2023-01-05T03:44:30.035Z,19.52
2023-01-05T03:46:57.160Z,20.33
2023-01-05T03:49:23.777Z,23.77
2023-01-05T03:51:50.483Z,19.98
2023-01-05T03:54:17.154Z,17.35
2023-01-05T03:56:45.851Z,24.20
2023-01-05T03:59:12.537Z,30.85
2023-01-05T04:01:39.275Z,20.13
2023-01-05T04:04:06.073Z,19.08
2023-01-05T04:06:32.913Z,23.00
2023-01-05T04:08:59.539Z,23.65
2023-01-05T04:11:26.259Z,21.80
2023-01-05T04:13:53.173Z,22.75
2023-01-05T04:16:20.114Z,25.40
2023-01-05T04:18:46.825Z,20.60
2023-01-05T04:21:13.652Z,23.00
2023-01-05T04:23:40.384Z,19.88
2023-01-05T04:26:07.384Z,19.75
2023-01-05T04:28:34.124Z,23.23
2023-01-05T04:31:00.918Z,27.67
2023-01-05T04:33:27.651Z,21.58
2023-01-05T04:35:54.501Z,18.90
2023-01-05T04:38:21.159Z,24.73
2023-01-05T04:40:49.309Z,21.13
2023-01-05T04:43:16.156Z,18.85
2023-01-05T04:45:42.787Z,20.25
2023-01-05T04:48:09.426Z,24.02
2023-01-05T04:50:36.079Z,20.70
2023-01-05T04:53:02.874Z,18.35
2023-01-05T04:55:29.534Z,27.98
2023-01-05T04:57:56.518Z,21.38
2023-01-05T05:00:23.190Z,23.30
2023-01-05T05:02:50.638Z,33.10
2023-01-05T05:05:17.376Z,24.25
2023-01-05T05:07:44.000Z,22.20
2023-01-05T05:10:10.791Z,24.77
2023-01-05T05:12:37.408Z,18.70
2023-01-05T05:15:04.493Z,21.27
2023-01-05T05:17:31.211Z,16.02
2023-01-05T05:19:57.882Z,26.27
2023-01-05T05:22:24.948Z,19.83
2023-01-05T05:24:51.579Z,16.35
2023-01-05T05:27:18.278Z,17.17
2023-01-05T05:29:45.010Z,25.02
2023-01-05T05:32:11.746Z,21.52
2023-01-05T05:34:38.463Z,22.52
2023-01-05T05:37:05.399Z,22.23
2023-01-05T05:39:32.024Z,22.25
2023-01-05T05:41:58.692Z,16.05
2023-01-05T05:44:25.409Z,18.63
2023-01-05T05:46:52.060Z,13.20
2023-01-05T05:49:18.757Z,17.75
2023-01-05T05:51:45.452Z,21.50
2023-01-05T05:54:12.137Z,15.43
2023-01-05T05:56:38.765Z,17.63
2023-01-05T05:59:05.409Z,16.27
2023-01-05T06:01:32.112Z,20.88
2023-01-05T06:03:59.023Z,25.70
2023-01-05T06:06:25.981Z,19.73
2023-01-05T06:08:52.759Z,16.85
2023-01-05T06:11:19.377Z,18.40
2023-01-05T06:13:48.685Z,23.20
2023-01-05T06:16:15.868Z,16.95
2023-01-05T06:18:42.512Z,16.88
2023-01-05T06:21:09.189Z,17.10
2023-01-05T06:23:35.873Z,15.60
2023-01-05T06:26:02.545Z,19.85
2023-01-05T06:28:29.231Z,20.63
2023-01-05T06:30:55.868Z,17.40
2023-01-05T06:33:22.545Z,19.30
2023-01-05T06:35:49.168Z,14.88
2023-01-05T06:38:16.499Z,20.95
2023-01-05T06:40:46.120Z,17.25
2023-01-05T06:43:13.161Z,24.98
2023-01-05T06:45:39.878Z,18.35
2023-01-05T06:48:06.812Z,21.42
2023-01-05T06:50:34.183Z,23.83
2023-01-05T06:53:01.343Z,19.52
2023-01-05T06:55:28.033Z,22.02
2023-01-05T06:58:00.452Z,23.85
2023-01-05T07:00:27.335Z,22.85
2023-01-05T07:02:53.956Z,28.05
2023-01-05T07:05:20.805Z,19.08
2023-01-05T07:07:47.535Z,25.45
2023-01-05T07:10:15.038Z,30.73
2023-01-05T07:12:41.718Z,24.60
2023-01-05T07:15:09.356Z,24.70
2023-01-05T07:17:38.894Z,28.88
2023-01-05T07:20:07.137Z,19.98
2023-01-05T07:22:33.810Z,24.38
2023-01-05T07:25:00.524Z,20.27
2023-01-05T07:27:27.452Z,24.13
2023-01-05T07:29:54.176Z,25.20
2023-01-05T07:32:20.814Z,30.98
2023-01-05T07:34:54.939Z,22.98
2023-01-05T07:37:24.545Z,28.83
2023-01-05T07:39:51.294Z,18.42
2023-01-05T07:42:17.939Z,20.83
2023-01-05T07:44:45.284Z,25.10
2023-01-05T07:47:12.823Z,16.75
2023-01-05T07:49:39.437Z,17.60
2023-01-05T07:52:06.105Z,18.92
2023-01-05T07:54:32.766Z,14.63
2023-01-05T07:56:59.440Z,11.55
2023-01-05T07:59:26.120Z,15.18
2023-01-05T08:01:52.827Z,18.85
2023-01-05T08:04:19.546Z,17.83
2023-01-05T08:06:46.278Z,17.67
2023-01-05T08:09:31.418Z,15.30
2023-01-05T08:11:58.095Z,17.27
2023-01-05T08:14:24.776Z,16.23
2023-01-05T08:16:51.505Z,15.68
2023-01-05T08:19:19.626Z,19.35
2023-01-05T08:21:46.373Z,24.85
2023-01-05T08:24:13.230Z,26.30
2023-01-05T08:26:39.984Z,30.30
2023-01-05T08:29:06.697Z,20.08
2023-01-05T08:31:37.435Z,20.13
2023-01-05T08:34:05.317Z,23.88
2023-01-05T08:36:32.915Z,21.48
2023-01-05T08:39:01.591Z,20.80
2023-01-05T08:41:31.922Z,24.58
2023-01-05T08:44:02.571Z,24.52
2023-01-05T08:46:32.796Z,28.08
2023-01-05T08:49:01.813Z,22.23
2023-01-05T08:51:29.351Z,25.98
2023-01-05T08:53:56.409Z,22.50
2023-01-05T08:56:25.167Z,24.05
2023-01-05T08:58:52.923Z,17.30
2023-01-05T09:01:22.133Z,25.02
2023-01-05T09:03:49.304Z,20.55
2023-01-05T09:06:16.303Z,25.73
2023-01-05T09:08:44.288Z,29.27
2023-01-05T09:11:13.673Z,24.05
2023-01-05T09:13:41.659Z,25.85
2023-01-05T09:16:10.804Z,27.75
2023-01-05T09:18:39.047Z,26.25
2023-01-05T09:21:06.355Z,36.38
2023-01-05T09:23:34.127Z,34.03
2023-01-05T09:26:03.401Z,25.80
2023-01-05T09:28:30.085Z,36.20
2023-01-05T09:30:57.038Z,30.70
2023-01-05T09:33:24.942Z,30.65
2023-01-05T09:35:57.728Z,32.88
2023-01-05T09:38:24.467Z,24.40
2023-01-05T09:40:54.820Z,30.25
2023-01-05T09:43:31.538Z,29.67
2023-01-05T09:45:59.495Z,35.53
2023-01-05T09:48:26.718Z,25.02
2023-01-05T09:50:53.860Z,33.95
2023-01-05T09:53:29.803Z,36.35
2023-01-05T09:55:57.732Z,23.55
2023-01-05T09:58:30.169Z,28.67
2023-01-05T10:01:13.466Z,34.38
2023-01-05T10:04:05.041Z,29.63
2023-01-05T10:06:38.068Z,27.52
2023-01-05T10:09:10.165Z,35.22
2023-01-05T10:12:23.594Z,33.45
2023-01-05T10:15:00.937Z,30.20
2023-01-05T10:17:41.934Z,32.78
2023-01-05T10:23:12.710Z,32.40
2023-01-05T10:25:48.596Z,25.25
2023-01-05T10:28:41.688Z,25.67
2023-01-05T10:31:31.593Z,26.00
2023-01-05T10:34:07.132Z,30.02
2023-01-05T10:37:10.450Z,29.10
2023-01-05T10:39:55.780Z,36.70
2023-01-05T10:43:03.025Z,28.88
2023-01-05T10:45:31.355Z,37.08
2023-01-05T10:47:59.428Z,33.15
2023-01-05T10:50:36.483Z,32.25
2023-01-05T10:53:12.964Z,40.00
2023-01-05T10:55:49.976Z,25.35
2023-01-05T10:58:56.431Z,43.20
2023-01-05T11:01:29.596Z,40.55
2023-01-05T11:04:26.986Z,31.05
2023-01-05T11:06:52.272Z,36.85
2023-01-05T11:09:26.718Z,36.55
2023-01-05T11:12:04.936Z,36.63
2023-01-05T11:14:43.126Z,34.78
2023-01-05T11:17:19.585Z,32.38
2023-01-05T11:19:49.927Z,27.55
2023-01-05T11:22:34.881Z,29.75
2023-01-05T11:25:14.934Z,32.13
2023-01-05T11:27:41.627Z,28.90
2023-01-05T11:30:20.224Z,32.08
2023-01-05T11:32:47.622Z,35.90
2023-01-05T11:35:25.195Z,33.25
2023-01-05T11:37:51.942Z,27.63
2023-01-05T11:40:21.088Z,29.50
2023-01-05T11:42:47.807Z,30.73
2023-01-05T11:45:21.450Z,29.50
2023-01-05T11:47:58.679Z,28.40
2023-01-05T11:50:43.840Z,31.40
2023-01-05T11:53:36.729Z,28.77
2023-01-05T11:56:08.335Z,33.42
2023-01-05T11:58:43.925Z,29.40
2023-01-05T12:01:49.408Z,32.83
2023-01-05T12:04:44.592Z,29.20
2023-01-05T12:07:29.970Z,28.77
2023-01-05T12:10:20.590Z,26.75
2023-01-05T12:13:11.805Z,38.78
2023-01-05T12:15:57.327Z,26.17
2023-01-05T12:19:06.267Z,35.67
2023-01-05T12:22:02.377Z,28.60
2023-01-05T12:24:55.887Z,32.63
2023-01-05T12:27:47.523Z,29.38
2023-01-05T12:36:22.740Z,29.90
2023-01-05T12:39:01.182Z,30.05
2023-01-05T12:41:45.981Z,27.38
2023-01-05T12:44:31.689Z,29.27
2023-01-05T12:47:19.346Z,32.47
2023-01-05T12:49:48.911Z,30.45
2023-01-05T12:52:36.482Z,39.20
2023-01-05T12:55:15.901Z,32.05
2023-01-05T12:57:54.236Z,35.28
2023-01-05T13:00:22.007Z,28.02
2023-01-05T13:02:55.737Z,30.33
2023-01-05T13:05:32.406Z,36.58
2023-01-05T13:08:20.516Z,30.42
2023-01-05T13:10:59.751Z,30.60
2023-01-05T13:13:36.300Z,35.70
2023-01-05T13:16:13.176Z,33.10
2023-01-05T13:18:45.837Z,31.88
2023-01-05T13:21:15.283Z,27.17
2023-01-05T13:23:50.425Z,25.98
2023-01-05T13:26:19.564Z,35.03
2023-01-05T13:28:48.511Z,24.25
2023-01-05T13:31:57.026Z,24.67
2023-01-05T13:35:00.825Z,28.88
2023-01-05T13:38:02.952Z,32.78
2023-01-05T13:41:04.818Z,24.40
2023-01-05T13:43:53.740Z,27.98
2023-01-05T13:46:36.837Z,27.35
2023-01-05T13:49:32.759Z,31.67
2023-01-05T13:52:36.065Z,25.95
2023-01-05T13:55:05.014Z,25.63
2023-01-05T13:57:42.369Z,22.83
2023-01-05T14:00:22.951Z,19.50
2023-01-05T14:03:07.994Z,29.92
2023-01-05T14:05:54.826Z,17.90
2023-01-05T14:08:34.519Z,21.02
2023-01-05T14:11:13.815Z,19.98
2023-01-05T14:13:58.431Z,16.77
2023-01-05T14:16:34.675Z,22.88
2023-01-05T14:19:18.850Z,17.30
2023-01-05T14:21:53.890Z,24.85
2023-01-05T14:24:47.573Z,18.83
2023-01-05T14:27:21.558Z,19.70
2023-01-05T14:32:26.080Z,18.35
2023-01-05T14:34:59.841Z,18.33
2023-01-05T14:37:29.285Z,17.63
2023-01-05T14:40:04.103Z,23.90
2023-01-05T14:42:40.895Z,20.23
2023-01-05T14:45:21.252Z,22.15
2023-01-05T14:47:55.191Z,24.70
2023-01-05T14:50:34.917Z,21.05
2023-01-05T14:53:14.419Z,23.35
2023-01-05T14:56:01.025Z,19.67
2023-01-05T14:58:36.674Z,22.00
2023-01-05T15:01:18.824Z,21.45
2023-01-05T15:03:57.573Z,19.92
2023-01-05T15:06:55.582Z,17.90
2023-01-05T15:09:52.075Z,17.92
2023-01-05T15:12:27.328Z,18.98
2023-01-05T15:15:03.784Z,22.30
2023-01-05T15:18:05.688Z,24.48
2023-01-05T15:21:26.516Z,22.33
2023-01-05T15:24:20.685Z,22.65
2023-01-05T15:27:02.955Z,21.08
2023-01-05T15:29:38.167Z,16.17
2023-01-05T15:32:23.759Z,19.85
2023-01-05T15:35:08.301Z,23.75
2023-01-05T15:37:40.934Z,20.40
2023-01-05T15:40:27.594Z,22.40
2023-01-05T15:42:58.862Z,19.85
2023-01-05T15:45:32.286Z,25.10
2023-01-05T15:48:09.503Z,21.80
2023-01-05T15:50:49.703Z,22.30
2023-01-05T15:53:41.031Z,22.50
2023-01-05T15:56:30.157Z,20.15
2023-01-05T15:58:57.055Z,26.30
2023-01-05T16:01:23.805Z,22.38
2023-01-05T16:03:51.030Z,20.40
2023-01-05T16:06:21.945Z,21.40
2023-01-05T16:08:52.160Z,28.65
2023-01-05T16:11:27.050Z,20.23
2023-01-05T16:14:11.939Z,30.83
2023-01-05T16:16:53.241Z,25.45
2023-01-05T16:22:12.410Z,25.85
2023-01-05T16:25:01.266Z,26.17
2023-01-05T16:27:28.855Z,19.48
2023-01-05T16:29:55.570Z,27.33
2023-01-05T16:32:37.162Z,23.25
2023-01-05T16:35:43.068Z,19.05
2023-01-05T16:38:09.798Z,18.05
2023-01-05T16:40:54.878Z,28.90
2023-01-05T16:43:44.629Z,25.88
2023-01-05T16:46:20.199Z,21.20
2023-01-05T16:49:04.330Z,30.70
2023-01-05T16:51:35.752Z,20.38
2023-01-05T16:54:20.782Z,36.72
2023-01-05T16:56:57.874Z,23.23
2023-01-05T16:59:50.094Z,25.05
2023-01-05T17:02:37.045Z,32.10
2023-01-05T17:05:06.584Z,31.98
2023-01-05T17:07:34.738Z,24.70
2023-01-05T17:10:03.442Z,25.65
2023-01-05T17:12:30.077Z,31.70
2023-01-05T17:15:00.982Z,25.92
2023-01-05T17:17:28.002Z,36.40
2023-01-05T17:19:54.729Z,24.70
2023-01-05T17:22:21.405Z,26.52
2023-01-05T17:24:48.338Z,22.38
2023-01-05T17:27:15.538Z,26.13
2023-01-05T17:29:42.518Z,21.73
2023-01-05T17:32:11.130Z,24.02
2023-01-05T17:34:39.654Z,32.55
2023-01-05T17:37:07.586Z,21.75
2023-01-05T17:39:34.403Z,29.42
2023-01-05T17:42:22.737Z,23.35
2023-01-05T17:44:51.739Z,21.63
2023-01-05T17:47:18.448Z,21.20
2023-01-05T17:49:45.107Z,18.08
2023-01-05T17:52:12.742Z,24.48
2023-01-05T17:54:41.707Z,17.30
2023-01-05T17:57:11.892Z,20.40
2023-01-05T17:59:38.622Z,22.50
2023-01-05T18:02:05.349Z,27.45
2023-01-05T18:04:31.992Z,20.83
2023-01-05T18:06:59.540Z,24.80
2023-01-05T18:09:26.454Z,21.55
2023-01-05T18:11:53.150Z,23.42
2023-01-05T18:14:19.826Z,26.48
2023-01-05T18:16:46.658Z,29.63
2023-01-05T18:21:45.863Z,29.65
2023-01-05T18:24:12.612Z,27.25
2023-01-05T18:26:39.288Z,29.38
2023-01-05T18:29:06.086Z,26.10
2023-01-05T18:31:34.841Z,24.65
2023-01-05T18:34:03.780Z,31.38
2023-01-05T18:36:30.513Z,23.50
2023-01-05T18:38:57.292Z,24.20
2023-01-05T18:41:25.297Z,19.45
2023-01-05T18:43:52.050Z,22.88
2023-01-05T18:46:18.849Z,22.10
2023-01-05T18:48:50.501Z,24.00
2023-01-05T18:51:17.546Z,21.67
2023-01-05T18:53:44.353Z,22.30
2023-01-05T18:56:13.488Z,15.48
2023-01-05T18:58:40.478Z,18.23
2023-01-05T19:01:12.398Z,12.88
2023-01-05T19:06:07.918Z,14.80
2023-01-05T19:08:35.004Z,13.63
2023-01-05T19:11:17.749Z,13.40
2023-01-05T19:13:46.388Z,11.85
2023-01-05T19:16:16.719Z,12.45
2023-01-05T19:18:47.897Z,15.23
2023-01-05T19:21:14.639Z,9.25
2023-01-05T19:23:41.456Z,12.90
2023-01-05T19:26:08.391Z,11.95
2023-01-05T19:28:36.598Z,10.80
2023-01-05T19:31:11.007Z,16.67
2023-01-05T19:33:38.111Z,9.73
2023-01-05T19:36:14.072Z,9.52
2023-01-05T19:38:41.234Z,13.32
2023-01-05T19:41:13.629Z,18.35
2023-01-05T19:43:41.189Z,14.57
2023-01-05T19:46:11.257Z,14.70
2023-01-05T19:48:39.468Z,11.68
2023-01-05T19:51:09.460Z,10.73
2023-01-05T19:53:38.472Z,6.60
2023-01-05T19:56:06.940Z,12.13
2023-01-05T19:58:34.273Z,9.05
2023-01-05T20:01:16.010Z,12.85
2023-01-05T20:03:44.531Z,9.40
2023-01-05T20:06:15.417Z,9.18
2023-01-05T20:08:42.525Z,9.57
2023-01-05T20:11:12.268Z,8.27
2023-01-05T20:13:39.737Z,9.30
2023-01-05T20:16:10.246Z,10.00
2023-01-05T20:18:38.315Z,9.43
2023-01-05T20:21:07.418Z,11.55
2023-01-05T20:23:37.618Z,14.30
2023-01-05T20:26:14.422Z,17.83
2023-01-05T20:28:41.883Z,24.50
2023-01-05T20:31:36.618Z,16.63
2023-01-05T20:34:13.690Z,10.63
2023-01-05T20:36:40.765Z,14.32
2023-01-05T20:39:09.886Z,21.45
2023-01-05T20:41:40.036Z,16.90
2023-01-05T20:44:07.256Z,15.40
2023-01-05T20:46:47.142Z,16.98
2023-01-05T20:49:14.857Z,11.93
2023-01-05T20:51:42.152Z,10.57
2023-01-05T20:54:10.203Z,18.55
2023-01-05T20:56:38.968Z,9.93
2023-01-05T20:59:20.781Z,12.27
2023-01-05T21:01:47.631Z,15.90
2023-01-05T21:04:14.942Z,12.73
2023-01-05T21:06:42.323Z,15.63
2023-01-05T21:09:09.741Z,13.65
2023-01-05T21:11:38.659Z,13.48
2023-01-05T21:14:06.766Z,16.08
2023-01-05T21:16:39.879Z,14.00
2023-01-05T21:19:07.692Z,9.82
2023-01-05T21:21:34.555Z,14.15
2023-01-05T21:24:02.456Z,12.57
2023-01-05T21:26:29.136Z,15.18
2023-01-05T21:28:55.840Z,12.60
2023-01-05T21:31:25.001Z,10.85
2023-01-05T21:33:52.774Z,8.32
2023-01-05T21:36:22.274Z,8.05
2023-01-05T21:39:03.397Z,8.85
2023-01-05T21:41:50.344Z,8.95
2023-01-05T21:44:17.716Z,7.90
2023-01-05T21:46:44.724Z,7.88
2023-01-05T21:49:12.421Z,9.25
2023-01-05T21:51:58.074Z,8.50
2023-01-05T21:54:44.304Z,8.60
2023-01-05T21:57:11.419Z,8.25
2023-01-05T21:59:38.150Z,5.35
2023-01-05T22:02:04.881Z,7.82
2023-01-05T22:04:31.777Z,6.38
2023-01-05T22:06:58.437Z,9.80
2023-01-05T22:09:25.389Z,6.18
2023-01-05T22:11:52.099Z,6.50
2023-01-05T22:14:18.835Z,4.75
2023-01-05T22:16:45.490Z,3.70
2023-01-05T22:19:12.185Z,5.68
2023-01-05T22:21:39.026Z,4.32
2023-01-05T22:24:10.516Z,6.32
2023-01-05T22:26:37.227Z,6.75
2023-01-05T22:29:04.298Z,8.02
2023-01-05T22:31:32.722Z,7.70
2023-01-05T22:34:00.615Z,4.45
2023-01-05T22:36:28.853Z,4.13
2023-01-05T22:38:56.786Z,5.70
2023-01-05T22:41:26.364Z,6.15
2023-01-05T22:43:53.508Z,4.55
2023-01-05T22:46:22.787Z,6.30
2023-01-05T22:48:51.705Z,4.40
2023-01-05T22:51:22.164Z,2.90
2023-01-05T22:53:49.384Z,4.80
2023-01-05T22:56:17.649Z,3.78
2023-01-05T22:58:44.716Z,5.10
2023-01-05T23:01:19.097Z,5.03
2023-01-05T23:03:45.850Z,4.68
2023-01-05T23:06:12.771Z,3.13
2023-01-05T23:08:40.670Z,8.10
2023-01-05T23:11:10.680Z,3.42
2023-01-05T23:13:37.813Z,4.15
2023-01-05T23:16:05.736Z,3.25
2023-01-05T23:18:34.025Z,3.28
2023-01-05T23:21:03.958Z,7.05
2023-01-05T23:23:31.038Z,8.38
2023-01-05T23:25:58.073Z,6.43
2023-01-05T23:28:26.321Z,8.65
2023-01-05T23:30:55.002Z,8.65
2023-01-05T23:33:23.562Z,5.25
2023-01-05T23:35:51.692Z,9.20
2023-01-05T23:38:19.160Z,5.20
2023-01-05T23:40:51.050Z,4.65
2023-01-05T23:43:21.296Z,5.65
2023-01-05T23:45:48.749Z,4.18
2023-01-05T23:48:16.281Z,5.78
2023-01-05T23:50:45.052Z,3.85
2023-01-05T23:53:12.656Z,4.57
2023-01-05T23:55:40.075Z,4.03
2023-01-05T23:58:07.856Z,7.10
